createdAt,value
2023-03-21T00:01:58.107Z,2.00
2023-03-21T00:06:08.847Z,2.13
2023-03-21T00:14:33.134Z,1.83
2023-03-21T00:18:42.505Z,1.70
2023-03-21T00:22:44.626Z,1.88
2023-03-21T00:26:47.071Z,1.50
2023-03-21T00:30:49.449Z,1.60
2023-03-21T00:35:11.795Z,2.03
2023-03-21T00:39:14.343Z,2.80
2023-03-21T00:43:18.384Z,1.63
2023-03-21T00:47:20.804Z,1.88
2023-03-21T00:51:27.935Z,2.20
2023-03-21T00:55:30.157Z,2.25
2023-03-21T00:59:32.164Z,2.08
2023-03-21T01:03:42.472Z,2.03
2023-03-21T01:07:46.972Z,2.03
2023-03-21T01:11:49.845Z,2.30
2023-03-21T01:15:55.657Z,2.40
2023-03-21T01:19:57.671Z,2.17
2023-03-21T01:24:00.015Z,2.42
2023-03-21T01:28:02.180Z,2.80
2023-03-21T01:32:04.652Z,2.63
2023-03-21T01:36:13.296Z,2.45
2023-03-21T01:40:19.469Z,2.35
2023-03-21T01:44:22.779Z,2.50
2023-03-21T01:48:28.347Z,2.10
2023-03-21T01:52:39.017Z,2.17
2023-03-21T01:56:47.851Z,2.10
2023-03-21T02:00:52.758Z,2.45
2023-03-21T02:05:07.073Z,2.10
2023-03-21T02:09:13.493Z,1.83
2023-03-21T02:13:16.197Z,2.03
2023-03-21T02:17:27.244Z,1.92
2023-03-21T02:21:41.968Z,1.95
2023-03-21T02:25:56.878Z,2.25
2023-03-21T02:30:45.626Z,2.10
2023-03-21T02:35:12.388Z,2.28
2023-03-21T02:39:30.546Z,2.17
2023-03-21T02:43:43.634Z,2.05
2023-03-21T02:47:52.581Z,2.13
2023-03-21T02:52:05.453Z,2.58
2023-03-21T02:56:16.434Z,2.50
2023-03-21T03:00:27.832Z,2.20
2023-03-21T03:04:30.961Z,2.10
2023-03-21T03:09:01.292Z,2.33
2023-03-21T03:13:21.561Z,2.00
2023-03-21T03:17:37.278Z,2.35
2023-03-21T03:21:44.568Z,2.40
2023-03-21T03:25:53.538Z,2.15
2023-03-21T03:30:01.749Z,2.17
2023-03-21T03:34:10.866Z,2.08
2023-03-21T03:38:17.297Z,2.20
2023-03-21T03:42:31.713Z,2.10
2023-03-21T03:46:51.029Z,2.00
2023-03-21T03:51:09.474Z,2.38
2023-03-21T03:55:34.558Z,2.42
2023-03-21T03:59:46.450Z,2.17
2023-03-21T04:04:13.331Z,2.63
2023-03-21T04:08:17.516Z,2.95
2023-03-21T04:12:25.513Z,2.63
2023-03-21T04:16:47.851Z,2.55
2023-03-21T04:20:51.459Z,2.95
2023-03-21T04:24:54.076Z,3.65
2023-03-21T04:28:56.418Z,2.88
2023-03-21T04:33:00.985Z,2.15
2023-03-21T04:37:11.003Z,2.60
2023-03-21T04:41:14.886Z,2.50
2023-03-21T04:45:17.711Z,3.80
2023-03-21T04:49:21.307Z,3.88
2023-03-21T04:53:23.363Z,3.90
2023-03-21T04:57:25.593Z,3.83
2023-03-21T05:01:30.773Z,3.60
2023-03-21T05:05:33.646Z,7.00
2023-03-21T05:09:35.768Z,5.78
2023-03-21T05:13:38.239Z,3.88
2023-03-21T05:17:42.657Z,4.28
2023-03-21T05:21:45.133Z,3.72
2023-03-21T05:25:54.306Z,3.00
2023-03-21T05:30:18.536Z,2.80
2023-03-21T05:34:23.831Z,2.92
2023-03-21T05:38:26.575Z,2.75
2023-03-21T05:42:29.263Z,3.00
2023-03-21T05:46:31.573Z,2.90
2023-03-21T05:50:34.768Z,2.90
2023-03-21T05:54:44.545Z,2.80
2023-03-21T05:58:46.908Z,3.17
2023-03-21T06:02:49.277Z,2.92
2023-03-21T06:07:07.582Z,3.05
2023-03-21T06:11:24.444Z,3.20
2023-03-21T06:15:30.851Z,2.67
2023-03-21T06:19:46.111Z,3.00
2023-03-21T06:23:59.748Z,3.35
2023-03-21T06:28:01.900Z,3.55
2023-03-21T06:32:04.901Z,3.00
2023-03-21T06:36:07.717Z,5.15
2023-03-21T06:40:10.752Z,3.45
2023-03-21T06:44:12.931Z,3.30
2023-03-21T06:48:24.493Z,3.25
2023-03-21T06:52:26.746Z,3.75
2023-03-21T06:56:29.240Z,3.60
2023-03-21T07:00:32.715Z,3.65
2023-03-21T07:04:34.948Z,3.30
2023-03-21T07:08:38.861Z,3.65
2023-03-21T07:12:41.107Z,3.25
2023-03-21T07:16:54.913Z,3.80
2023-03-21T07:20:57.060Z,4.07
2023-03-21T07:25:05.257Z,4.20
2023-03-21T07:29:13.354Z,4.20
2023-03-21T07:33:15.376Z,4.00
2023-03-21T07:37:17.451Z,3.92
2023-03-21T07:41:19.439Z,3.50
2023-03-21T07:45:23.577Z,2.88
2023-03-21T07:49:26.482Z,2.90
2023-03-21T07:53:28.465Z,2.97
2023-03-21T07:57:30.913Z,2.97
2023-03-21T08:01:32.983Z,3.28
2023-03-21T08:05:38.119Z,3.10
2023-03-21T08:09:40.779Z,2.72
2023-03-21T08:13:42.843Z,2.92
2023-03-21T08:17:47.794Z,2.88
2023-03-21T08:21:49.827Z,3.00
2023-03-21T08:25:55.824Z,3.65
2023-03-21T08:29:58.712Z,3.53
2023-03-21T08:34:00.839Z,3.35
2023-03-21T08:38:06.847Z,3.33
2023-03-21T08:42:08.847Z,2.72
2023-03-21T08:46:10.929Z,3.70
2023-03-21T08:50:15.792Z,2.90
2023-03-21T08:54:21.372Z,3.92
2023-03-21T08:58:23.438Z,3.40
2023-03-21T09:02:25.524Z,4.10
2023-03-21T09:06:28.002Z,3.78
2023-03-21T09:10:30.317Z,3.70
2023-03-21T09:14:33.175Z,3.50
2023-03-21T09:18:49.357Z,3.30
2023-03-21T09:22:52.578Z,4.70
2023-03-21T09:26:54.612Z,3.85
2023-03-21T09:30:59.123Z,3.28
2023-03-21T09:35:01.120Z,3.15
2023-03-21T09:39:04.125Z,3.22
2023-03-21T09:43:43.871Z,3.10
2023-03-21T09:47:56.978Z,2.80
2023-03-21T09:52:03.493Z,3.08
2023-03-21T09:56:11.271Z,3.40
2023-03-21T10:00:20.839Z,3.25
2023-03-21T10:04:25.026Z,3.90
2023-03-21T10:08:36.941Z,3.30
2023-03-21T10:12:38.922Z,2.90
2023-03-21T10:16:43.899Z,3.08
2023-03-21T10:20:46.780Z,3.53
2023-03-21T10:24:48.811Z,2.67
2023-03-21T10:28:53.307Z,2.78
2023-03-21T10:33:05.107Z,2.55
2023-03-21T10:37:07.847Z,2.65
2023-03-21T10:41:11.696Z,2.50
2023-03-21T10:45:20.032Z,2.33
2023-03-21T10:49:22.148Z,2.80
2023-03-21T10:53:39.304Z,2.90
2023-03-21T10:57:41.412Z,3.00
2023-03-21T11:01:48.927Z,2.97
2023-03-21T11:05:57.320Z,2.47
2023-03-21T11:10:01.213Z,2.50
2023-03-21T11:14:09.697Z,2.78
2023-03-21T11:18:20.033Z,2.80
2023-03-21T11:22:24.806Z,2.80
2023-03-21T11:26:32.250Z,2.83
2023-03-21T11:30:34.503Z,2.70
2023-03-21T11:34:50.994Z,2.70
2023-03-21T11:38:57.447Z,2.80
2023-03-21T11:43:04.187Z,3.00
2023-03-21T11:47:10.351Z,3.03
2023-03-21T11:51:36.932Z,3.17
2023-03-21T11:56:06.520Z,2.67
2023-03-21T12:00:25.820Z,2.47
2023-03-21T12:04:46.517Z,3.05
2023-03-21T12:09:03.705Z,2.40
2023-03-21T12:13:30.231Z,2.70
2023-03-21T12:17:58.759Z,3.03
2023-03-21T12:22:24.701Z,3.25
2023-03-21T12:26:37.417Z,3.33
2023-03-21T12:30:54.510Z,3.40
2023-03-21T12:35:14.929Z,2.90
2023-03-21T12:39:16.929Z,3.10
2023-03-21T12:43:40.389Z,3.00
2023-03-21T12:47:48.638Z,3.20
2023-03-21T12:51:58.109Z,2.95
2023-03-21T12:56:05.597Z,2.40
2023-03-21T13:00:13.227Z,2.42
2023-03-21T13:04:34.658Z,2.85
2023-03-21T13:08:46.481Z,2.85
2023-03-21T13:13:03.823Z,2.47
2023-03-21T13:17:24.798Z,2.78
2023-03-21T13:21:37.860Z,2.50
2023-03-21T13:25:47.115Z,2.13
2023-03-21T13:29:54.334Z,2.40
2023-03-21T13:33:59.710Z,2.50
2023-03-21T13:38:12.836Z,3.10
2023-03-21T13:42:29.108Z,3.13
2023-03-21T13:46:38.099Z,2.72
2023-03-21T13:51:00.757Z,3.30
2023-03-21T13:55:03.660Z,3.13
2023-03-21T13:59:11.228Z,2.90
2023-03-21T14:03:20.804Z,3.40
2023-03-21T14:07:27.065Z,3.08
2023-03-21T14:11:32.391Z,3.22
2023-03-21T14:15:49.728Z,3.60
2023-03-21T14:20:16.255Z,4.13
2023-03-21T14:24:20.224Z,3.28
2023-03-21T14:28:28.520Z,4.18
2023-03-21T14:32:31.091Z,4.10
2023-03-21T14:36:38.914Z,4.47
2023-03-21T14:40:47.969Z,4.65
2023-03-21T14:53:16.490Z,4.65
2023-03-21T14:57:24.990Z,4.95
2023-03-21T15:01:34.568Z,4.78
2023-03-21T15:05:38.424Z,5.10
2023-03-21T15:09:40.949Z,5.18
2023-03-21T15:13:54.719Z,5.28
2023-03-21T15:18:04.863Z,5.40
2023-03-21T15:22:18.691Z,5.82
2023-03-21T15:26:24.296Z,6.03
2023-03-21T15:30:28.941Z,5.78
2023-03-21T15:34:31.624Z,6.00
2023-03-21T15:38:42.521Z,6.00
2023-03-21T15:42:44.602Z,5.88
2023-03-21T15:46:51.545Z,5.45
2023-03-21T15:51:06.068Z,5.53
2023-03-21T15:55:25.899Z,5.60
2023-03-21T15:59:32.810Z,6.07
2023-03-21T16:03:45.794Z,5.70
2023-03-21T16:07:48.630Z,6.70
2023-03-21T16:11:51.877Z,6.63
2023-03-21T16:15:54.465Z,5.50
2023-03-21T16:19:56.663Z,5.93
2023-03-21T16:23:58.828Z,5.78
2023-03-21T16:28:00.861Z,6.68
2023-03-21T16:32:06.124Z,6.40
2023-03-21T16:36:38.720Z,6.80
2023-03-21T16:40:43.286Z,6.65
2023-03-21T16:44:45.630Z,6.60
2023-03-21T16:48:50.844Z,6.32
2023-03-21T16:52:54.684Z,6.63
2023-03-21T16:56:58.993Z,6.75
2023-03-21T17:01:01.406Z,6.30
2023-03-21T17:05:04.945Z,6.55
2023-03-21T17:09:07.468Z,7.20
2023-03-21T17:13:10.974Z,6.60
2023-03-21T17:17:14.507Z,7.13
2023-03-21T17:21:19.493Z,6.40
2023-03-21T17:25:21.606Z,6.20
2023-03-21T17:29:23.642Z,6.25
2023-03-21T17:33:25.666Z,6.60
2023-03-21T17:37:27.734Z,6.78
2023-03-21T17:41:29.770Z,9.50
2023-03-21T17:45:31.791Z,9.05
2023-03-21T17:49:33.789Z,8.02
2023-03-21T17:53:35.816Z,8.10
2023-03-21T17:57:38.106Z,7.55
2023-03-21T18:01:41.425Z,7.25
2023-03-21T18:05:43.461Z,7.80
2023-03-21T18:09:45.535Z,7.60
2023-03-21T18:13:48.492Z,9.32
2023-03-21T18:17:51.028Z,8.95
2023-03-21T18:21:53.171Z,7.57
2023-03-21T18:25:55.440Z,8.23
2023-03-21T18:34:20.559Z,8.85
2023-03-21T18:38:22.770Z,7.20
2023-03-21T18:42:30.554Z,7.03
2023-03-21T18:46:33.047Z,7.25
2023-03-21T18:50:35.407Z,6.60
2023-03-21T18:54:38.311Z,7.18
2023-03-21T18:58:40.327Z,6.90
2023-03-21T19:02:48.361Z,7.93
2023-03-21T19:06:50.562Z,7.75
2023-03-21T19:10:53.167Z,6.78
2023-03-21T19:14:55.616Z,5.90
2023-03-21T19:18:57.839Z,6.85
2023-03-21T19:22:59.984Z,6.60
2023-03-21T19:27:02.046Z,7.13
2023-03-21T19:31:08.333Z,5.93
2023-03-21T19:35:10.390Z,5.65
2023-03-21T19:39:13.246Z,5.70
2023-03-21T19:43:32.355Z,5.78
2023-03-21T19:47:35.427Z,5.18
2023-03-21T19:51:37.684Z,5.20
2023-03-21T19:55:39.763Z,5.80
2023-03-21T19:59:42.044Z,6.22
2023-03-21T20:03:47.319Z,7.55
2023-03-21T20:07:49.395Z,7.75
2023-03-21T20:11:53.206Z,7.90
2023-03-21T20:15:57.081Z,6.35
2023-03-21T20:20:00.149Z,7.22
2023-03-21T20:24:03.534Z,7.07
2023-03-21T20:28:15.867Z,6.68
2023-03-21T20:32:22.195Z,5.93
2023-03-21T20:36:38.576Z,6.68
2023-03-21T20:45:00.731Z,5.68
2023-03-21T20:49:05.688Z,4.93
2023-03-21T20:53:09.410Z,5.47
2023-03-21T20:57:12.601Z,4.75
2023-03-21T21:01:16.702Z,5.22
2023-03-21T21:05:30.647Z,5.22
2023-03-21T21:09:34.925Z,5.28
2023-03-21T21:13:37.697Z,5.15
2023-03-21T21:18:03.887Z,5.57
2023-03-21T21:22:01.737Z,5.22
2023-03-21T21:26:05.550Z,4.63
2023-03-21T21:30:09.748Z,5.15
2023-03-21T21:34:11.895Z,5.32
2023-03-21T21:38:17.536Z,5.00
2023-03-21T21:42:19.624Z,5.00
2023-03-21T21:46:21.685Z,4.97
2023-03-21T21:50:24.462Z,6.22
2023-03-21T21:54:30.085Z,6.43
2023-03-21T21:58:38.852Z,7.32
2023-03-21T22:02:41.291Z,7.60
2023-03-21T22:06:43.488Z,7.95
2023-03-21T22:10:46.764Z,8.32
2023-03-21T22:14:48.792Z,8.30
2023-03-21T22:18:50.821Z,8.02
2023-03-21T22:22:52.933Z,7.55
2023-03-21T22:26:57.987Z,7.00
2023-03-21T22:31:08.491Z,6.90
2023-03-21T22:35:10.646Z,6.35
2023-03-21T22:39:13.540Z,6.30
2023-03-21T22:43:15.865Z,5.50
2023-03-21T22:47:17.971Z,6.68
2023-03-21T22:51:19.982Z,6.93
2023-03-21T22:55:22.006Z,6.95
2023-03-21T22:59:24.830Z,6.82
2023-03-21T23:03:26.896Z,7.80
2023-03-21T23:07:28.906Z,6.60
2023-03-21T23:11:30.952Z,6.78
2023-03-21T23:15:33.207Z,7.10
2023-03-21T23:19:35.716Z,7.25
2023-03-21T23:23:37.825Z,6.53
2023-03-21T23:27:39.826Z,6.50
2023-03-21T23:31:41.837Z,7.35
2023-03-21T23:35:43.871Z,6.28
2023-03-21T23:39:45.886Z,5.20
2023-03-21T23:43:48.536Z,4.95
2023-03-21T23:47:50.641Z,4.35
2023-03-21T23:51:52.691Z,3.85
2023-03-21T23:55:58.422Z,4.40
